sensor_id;sensor_type;location;lat;lon;timestamp;P1;durP1;ratioP1;P2;durP2;ratioP2
66129;SDS011;52930;51.464;11.764;2023-04-01T00:01:03;5.00;;;1.05;;
66129;SDS011;52930;51.464;11.764;2023-04-01T00:03:29;7.67;;;1.27;;
66129;SDS011;52930;51.464;11.764;2023-04-01T00:05:56;4.97;;;0.77;;
66129;SDS011;52930;51.464;11.764;2023-04-01T00:08:22;6.25;;;1.35;;
66129;SDS011;52930;51.464;11.764;2023-04-01T00:10:47;5.70;;;0.70;;
66129;SDS011;52930;51.464;11.764;2023-04-01T00:13:13;5.40;;;1.07;;
66129;SDS011;52930;51.464;11.764;2023-04-01T00:15:38;6.60;;;0.90;;
66129;SDS011;52930;51.464;11.764;2023-04-01T00:18:03;4.80;;;0.87;;
66129;SDS011;52930;51.464;11.764;2023-04-01T00:20:29;3.97;;;0.80;;
66129;SDS011;52930;51.464;11.764;2023-04-01T00:22:55;3.97;;;0.80;;
66129;SDS011;52930;51.464;11.764;2023-04-01T00:25:21;5.27;;;0.80;;
66129;SDS011;52930;51.464;11.764;2023-04-01T00:27:46;6.05;;;0.90;;
66129;SDS011;52930;51.464;11.764;2023-04-01T00:30:12;5.70;;;0.77;;
66129;SDS011;52930;51.464;11.764;2023-04-01T00:32:37;4.47;;;0.80;;
66129;SDS011;52930;51.464;11.764;2023-04-01T00:35:03;5.47;;;0.80;;
66129;SDS011;52930;51.464;11.764;2023-04-01T00:37:29;3.38;;;0.73;;
66129;SDS011;52930;51.464;11.764;2023-04-01T00:39:55;5.05;;;1.05;;
66129;SDS011;52930;51.464;11.764;2023-04-01T00:42:20;4.63;;;0.80;;
66129;SDS011;52930;51.464;11.764;2023-04-01T00:44:53;4.93;;;0.77;;
66129;SDS011;52930;51.464;11.764;2023-04-01T00:47:18;4.10;;;0.70;;
66129;SDS011;52930;51.464;11.764;2023-04-01T00:49:45;3.93;;;0.80;;
66129;SDS011;52930;51.464;11.764;2023-04-01T00:52:14;5.50;;;0.90;;
66129;SDS011;52930;51.464;11.764;2023-04-01T00:54:41;5.00;;;0.70;;
66129;SDS011;52930;51.464;11.764;2023-04-01T00:57:15;4.93;;;0.50;;
66129;SDS011;52930;51.464;11.764;2023-04-01T00:59:56;4.85;;;0.77;;
66129;SDS011;52930;51.464;11.764;2023-04-01T01:02:22;4.35;;;1.08;;
66129;SDS011;52930;51.464;11.764;2023-04-01T01:04:48;4.20;;;0.90;;
66129;SDS011;52930;51.464;11.764;2023-04-01T01:15:21;4.60;;;0.85;;
66129;SDS011;52930;51.464;11.764;2023-04-01T01:17:56;4.93;;;1.02;;
66129;SDS011;52930;51.464;11.764;2023-04-01T01:34:34;4.43;;;1.13;;
66129;SDS011;52930;51.464;11.764;2023-04-01T01:37:06;4.93;;;1.40;;
66129;SDS011;52930;51.464;11.764;2023-04-01T01:39:34;6.72;;;1.65;;
66129;SDS011;52930;51.464;11.764;2023-04-01T01:42:02;6.18;;;1.20;;
66129;SDS011;52930;51.464;11.764;2023-04-01T01:44:29;4.25;;;1.25;;
66129;SDS011;52930;51.464;11.764;2023-04-01T01:46:56;5.05;;;1.42;;
66129;SDS011;52930;51.464;11.764;2023-04-01T01:49:21;4.23;;;0.90;;
66129;SDS011;52930;51.464;11.764;2023-04-01T01:51:47;7.25;;;1.40;;
66129;SDS011;52930;51.464;11.764;2023-04-01T01:54:16;6.20;;;1.10;;
66129;SDS011;52930;51.464;11.764;2023-04-01T01:56:43;6.13;;;1.08;;
66129;SDS011;52930;51.464;11.764;2023-04-01T01:59:10;5.45;;;1.25;;
66129;SDS011;52930;51.464;11.764;2023-04-01T02:01:38;4.65;;;1.20;;
66129;SDS011;52930;51.464;11.764;2023-04-01T02:04:06;5.28;;;1.02;;
66129;SDS011;52930;51.464;11.764;2023-04-01T02:06:32;6.45;;;1.42;;
66129;SDS011;52930;51.464;11.764;2023-04-01T02:09:00;5.80;;;1.10;;
66129;SDS011;52930;51.464;11.764;2023-04-01T02:14:17;4.18;;;1.00;;
66129;SDS011;52930;51.464;11.764;2023-04-01T02:16:48;6.80;;;1.13;;
66129;SDS011;52930;51.464;11.764;2023-04-01T02:19:16;5.97;;;1.30;;
66129;SDS011;52930;51.464;11.764;2023-04-01T02:21:47;5.80;;;1.17;;
66129;SDS011;52930;51.464;11.764;2023-04-01T02:24:17;5.53;;;1.30;;
66129;SDS011;52930;51.464;11.764;2023-04-01T02:26:42;5.00;;;1.10;;
66129;SDS011;52930;51.464;11.764;2023-04-01T02:29:09;6.78;;;1.40;;
66129;SDS011;52930;51.464;11.764;2023-04-01T02:31:36;5.97;;;1.27;;
66129;SDS011;52930;51.464;11.764;2023-04-01T02:34:02;5.10;;;1.00;;
66129;SDS011;52930;51.464;11.764;2023-04-01T02:36:28;6.17;;;1.10;;
66129;SDS011;52930;51.464;11.764;2023-04-01T02:38:53;10.05;;;1.33;;
66129;SDS011;52930;51.464;11.764;2023-04-01T02:41:20;6.30;;;0.93;;
66129;SDS011;52930;51.464;11.764;2023-04-01T02:43:46;5.22;;;1.08;;
66129;SDS011;52930;51.464;11.764;2023-04-01T02:46:11;5.27;;;1.20;;
66129;SDS011;52930;51.464;11.764;2023-04-01T02:48:36;5.53;;;0.95;;
66129;SDS011;52930;51.464;11.764;2023-04-01T02:51:02;5.40;;;0.90;;
66129;SDS011;52930;51.464;11.764;2023-04-01T02:53:27;6.13;;;1.00;;
66129;SDS011;52930;51.464;11.764;2023-04-01T02:55:53;4.53;;;1.00;;
66129;SDS011;52930;51.464;11.764;2023-04-01T02:58:18;5.47;;;0.77;;
66129;SDS011;52930;51.464;11.764;2023-04-01T03:00:43;4.75;;;0.70;;
66129;SDS011;52930;51.464;11.764;2023-04-01T03:03:09;2.57;;;0.60;;
66129;SDS011;52930;51.464;11.764;2023-04-01T03:05:34;3.90;;;0.60;;
66129;SDS011;52930;51.464;11.764;2023-04-01T03:08:00;6.45;;;0.93;;
66129;SDS011;52930;51.464;11.764;2023-04-01T03:10:26;5.10;;;0.80;;
66129;SDS011;52930;51.464;11.764;2023-04-01T03:12:51;5.07;;;0.80;;
66129;SDS011;52930;51.464;11.764;2023-04-01T03:15:16;5.13;;;0.60;;
66129;SDS011;52930;51.464;11.764;2023-04-01T03:17:42;4.20;;;0.75;;
66129;SDS011;52930;51.464;11.764;2023-04-01T03:20:08;5.22;;;0.93;;
66129;SDS011;52930;51.464;11.764;2023-04-01T03:22:35;7.90;;;0.82;;
66129;SDS011;52930;51.464;11.764;2023-04-01T03:25:01;4.30;;;1.00;;
66129;SDS011;52930;51.464;11.764;2023-04-01T03:27:27;5.57;;;0.73;;
66129;SDS011;52930;51.464;11.764;2023-04-01T03:29:53;3.37;;;0.50;;
66129;SDS011;52930;51.464;11.764;2023-04-01T03:32:18;3.20;;;0.77;;
66129;SDS011;52930;51.464;11.764;2023-04-01T03:34:43;6.00;;;1.00;;
66129;SDS011;52930;51.464;11.764;2023-04-01T03:37:09;3.17;;;0.63;;
66129;SDS011;52930;51.464;11.764;2023-04-01T03:39:34;3.93;;;0.90;;
66129;SDS011;52930;51.464;11.764;2023-04-01T03:42:00;6.77;;;0.70;;
66129;SDS011;52930;51.464;11.764;2023-04-01T03:44:25;9.70;;;1.03;;
66129;SDS011;52930;51.464;11.764;2023-04-01T03:46:51;3.28;;;0.85;;
66129;SDS011;52930;51.464;11.764;2023-04-01T03:49:16;4.13;;;0.90;;
66129;SDS011;52930;51.464;11.764;2023-04-01T03:51:43;5.47;;;0.90;;
66129;SDS011;52930;51.464;11.764;2023-04-01T03:54:09;5.27;;;0.87;;
66129;SDS011;52930;51.464;11.764;2023-04-01T03:56:34;8.95;;;0.63;;
66129;SDS011;52930;51.464;11.764;2023-04-01T03:59:04;4.17;;;0.77;;
66129;SDS011;52930;51.464;11.764;2023-04-01T04:01:31;4.22;;;0.90;;
66129;SDS011;52930;51.464;11.764;2023-04-01T04:03:56;3.37;;;0.67;;
66129;SDS011;52930;51.464;11.764;2023-04-01T04:06:22;5.23;;;0.50;;
66129;SDS011;52930;51.464;11.764;2023-04-01T04:08:49;3.38;;;0.90;;
66129;SDS011;52930;51.464;11.764;2023-04-01T04:11:14;4.78;;;1.00;;
66129;SDS011;52930;51.464;11.764;2023-04-01T04:13:40;4.20;;;0.80;;
66129;SDS011;52930;51.464;11.764;2023-04-01T04:16:06;5.95;;;0.90;;
66129;SDS011;52930;51.464;11.764;2023-04-01T04:18:31;4.30;;;0.82;;
66129;SDS011;52930;51.464;11.764;2023-04-01T04:20:57;4.68;;;0.90;;
66129;SDS011;52930;51.464;11.764;2023-04-01T04:23:22;4.40;;;0.97;;
66129;SDS011;52930;51.464;11.764;2023-04-01T04:25:55;4.47;;;0.80;;
66129;SDS011;52930;51.464;11.764;2023-04-01T04:28:21;5.55;;;1.10;;
66129;SDS011;52930;51.464;11.764;2023-04-01T04:30:47;5.63;;;1.00;;
66129;SDS011;52930;51.464;11.764;2023-04-01T04:33:12;3.92;;;0.73;;
66129;SDS011;52930;51.464;11.764;2023-04-01T04:35:38;8.77;;;0.90;;
66129;SDS011;52930;51.464;11.764;2023-04-01T04:38:03;4.77;;;1.00;;
66129;SDS011;52930;51.464;11.764;2023-04-01T04:40:28;7.27;;;0.70;;
66129;SDS011;52930;51.464;11.764;2023-04-01T04:42:54;6.10;;;1.00;;
66129;SDS011;52930;51.464;11.764;2023-04-01T04:45:19;4.53;;;0.87;;
66129;SDS011;52930;51.464;11.764;2023-04-01T04:47:44;4.90;;;0.90;;
66129;SDS011;52930;51.464;11.764;2023-04-01T04:50:10;3.60;;;0.70;;
66129;SDS011;52930;51.464;11.764;2023-04-01T04:52:36;5.25;;;0.65;;
66129;SDS011;52930;51.464;11.764;2023-04-01T04:55:02;4.22;;;1.00;;
66129;SDS011;52930;51.464;11.764;2023-04-01T04:57:27;3.92;;;1.10;;
66129;SDS011;52930;51.464;11.764;2023-04-01T04:59:53;3.60;;;0.60;;
66129;SDS011;52930;51.464;11.764;2023-04-01T05:02:18;3.73;;;0.80;;
66129;SDS011;52930;51.464;11.764;2023-04-01T05:04:43;8.33;;;0.83;;
66129;SDS011;52930;51.464;11.764;2023-04-01T05:07:09;3.67;;;0.77;;
66129;SDS011;52930;51.464;11.764;2023-04-01T05:09:34;5.37;;;0.80;;
66129;SDS011;52930;51.464;11.764;2023-04-01T05:12:00;6.40;;;1.10;;
66129;SDS011;52930;51.464;11.764;2023-04-01T05:14:25;3.43;;;0.90;;
66129;SDS011;52930;51.464;11.764;2023-04-01T05:16:50;5.10;;;0.83;;
66129;SDS011;52930;51.464;11.764;2023-04-01T05:19:16;3.20;;;0.60;;
66129;SDS011;52930;51.464;11.764;2023-04-01T05:21:41;5.30;;;0.97;;
66129;SDS011;52930;51.464;11.764;2023-04-01T05:24:07;4.77;;;0.80;;
66129;SDS011;52930;51.464;11.764;2023-04-01T05:26:34;3.40;;;0.57;;
66129;SDS011;52930;51.464;11.764;2023-04-01T05:29:00;7.43;;;0.93;;
66129;SDS011;52930;51.464;11.764;2023-04-01T05:31:25;5.40;;;1.42;;
66129;SDS011;52930;51.464;11.764;2023-04-01T05:33:51;7.37;;;1.83;;
66129;SDS011;52930;51.464;11.764;2023-04-01T05:36:16;5.57;;;1.50;;
66129;SDS011;52930;51.464;11.764;2023-04-01T05:38:42;3.55;;;0.88;;
66129;SDS011;52930;51.464;11.764;2023-04-01T05:41:08;4.90;;;0.87;;
66129;SDS011;52930;51.464;11.764;2023-04-01T05:43:37;5.78;;;0.93;;
66129;SDS011;52930;51.464;11.764;2023-04-01T05:46:03;4.03;;;1.00;;
66129;SDS011;52930;51.464;11.764;2023-04-01T05:48:29;4.77;;;0.90;;
66129;SDS011;52930;51.464;11.764;2023-04-01T05:50:54;5.45;;;0.90;;
66129;SDS011;52930;51.464;11.764;2023-04-01T05:53:20;2.90;;;0.57;;
66129;SDS011;52930;51.464;11.764;2023-04-01T05:55:45;3.60;;;0.77;;
66129;SDS011;52930;51.464;11.764;2023-04-01T05:58:10;3.23;;;0.73;;
66129;SDS011;52930;51.464;11.764;2023-04-01T06:00:36;6.30;;;1.07;;
66129;SDS011;52930;51.464;11.764;2023-04-01T06:03:01;3.50;;;0.60;;
66129;SDS011;52930;51.464;11.764;2023-04-01T06:05:28;2.43;;;0.43;;
66129;SDS011;52930;51.464;11.764;2023-04-01T06:24:11;3.42;;;0.90;;
66129;SDS011;52930;51.464;11.764;2023-04-01T06:26:46;4.13;;;1.23;;
66129;SDS011;52930;51.464;11.764;2023-04-01T06:29:37;7.20;;;1.13;;
66129;SDS011;52930;51.464;11.764;2023-04-01T06:40:36;4.05;;;0.75;;
66129;SDS011;52930;51.464;11.764;2023-04-01T06:43:15;3.70;;;0.60;;
66129;SDS011;52930;51.464;11.764;2023-04-01T06:45:54;3.20;;;0.70;;
66129;SDS011;52930;51.464;11.764;2023-04-01T06:48:45;5.07;;;1.10;;
66129;SDS011;52930;51.464;11.764;2023-04-01T06:56:17;5.70;;;0.80;;
66129;SDS011;52930;51.464;11.764;2023-04-01T07:01:10;2.88;;;0.57;;
66129;SDS011;52930;51.464;11.764;2023-04-01T07:04:01;3.58;;;0.82;;
66129;SDS011;52930;51.464;11.764;2023-04-01T07:06:31;5.13;;;0.85;;
66129;SDS011;52930;51.464;11.764;2023-04-01T07:09:05;5.15;;;0.90;;
66129;SDS011;52930;51.464;11.764;2023-04-01T07:11:35;4.60;;;0.80;;
66129;SDS011;52930;51.464;11.764;2023-04-01T07:14:04;3.42;;;0.70;;
66129;SDS011;52930;51.464;11.764;2023-04-01T07:16:37;7.25;;;0.80;;
66129;SDS011;52930;51.464;11.764;2023-04-01T07:19:20;3.47;;;0.80;;
66129;SDS011;52930;51.464;11.764;2023-04-01T07:22:00;6.13;;;0.98;;
66129;SDS011;52930;51.464;11.764;2023-04-01T07:24:36;5.30;;;1.10;;
66129;SDS011;52930;51.464;11.764;2023-04-01T07:27:03;4.97;;;0.80;;
66129;SDS011;52930;51.464;11.764;2023-04-01T07:29:33;4.78;;;0.75;;
66129;SDS011;52930;51.464;11.764;2023-04-01T07:34:29;5.28;;;0.90;;
66129;SDS011;52930;51.464;11.764;2023-04-01T07:37:06;4.35;;;0.98;;
66129;SDS011;52930;51.464;11.764;2023-04-01T07:39:46;3.67;;;0.70;;
66129;SDS011;52930;51.464;11.764;2023-04-01T07:42:27;4.88;;;1.00;;
66129;SDS011;52930;51.464;11.764;2023-04-01T07:51:02;4.53;;;0.90;;
66129;SDS011;52930;51.464;11.764;2023-04-01T07:53:34;9.05;;;1.77;;
66129;SDS011;52930;51.464;11.764;2023-04-01T08:01:43;3.70;;;0.40;;
66129;SDS011;52930;51.464;11.764;2023-04-01T08:04:23;3.85;;;0.40;;
66129;SDS011;52930;51.464;11.764;2023-04-01T08:06:59;4.00;;;0.50;;
66129;SDS011;52930;51.464;11.764;2023-04-01T08:17:45;3.60;;;0.50;;
66129;SDS011;52930;51.464;11.764;2023-04-01T08:22:45;3.40;;;0.80;;
66129;SDS011;52930;51.464;11.764;2023-04-01T08:25:19;4.82;;;0.70;;
66129;SDS011;52930;51.464;11.764;2023-04-01T08:28:33;3.33;;;0.50;;
66129;SDS011;52930;51.464;11.764;2023-04-01T08:30:48;3.03;;;0.57;;
66129;SDS011;52930;51.464;11.764;2023-04-01T08:33:22;4.65;;;0.68;;
66129;SDS011;52930;51.464;11.764;2023-04-01T08:35:59;4.70;;;0.90;;
66129;SDS011;52930;51.464;11.764;2023-04-01T08:38:30;5.55;;;0.65;;
66129;SDS011;52930;51.464;11.764;2023-04-01T08:43:43;3.63;;;0.45;;
66129;SDS011;52930;51.464;11.764;2023-04-01T08:51:55;3.47;;;0.50;;
66129;SDS011;52930;51.464;11.764;2023-04-01T09:00:24;4.05;;;0.70;;
66129;SDS011;52930;51.464;11.764;2023-04-01T09:03:15;2.67;;;0.45;;
66129;SDS011;52930;51.464;11.764;2023-04-01T09:13:59;2.78;;;0.50;;
66129;SDS011;52930;51.464;11.764;2023-04-01T09:16:55;3.55;;;0.52;;
66129;SDS011;52930;51.464;11.764;2023-04-01T09:28:33;3.50;;;0.50;;
66129;SDS011;52930;51.464;11.764;2023-04-01T09:39:36;2.13;;;0.40;;
66129;SDS011;52930;51.464;11.764;2023-04-01T09:42:07;4.05;;;0.38;;
66129;SDS011;52930;51.464;11.764;2023-04-01T09:44:53;2.53;;;0.40;;
66129;SDS011;52930;51.464;11.764;2023-04-01T09:50:27;2.90;;;0.50;;
66129;SDS011;52930;51.464;11.764;2023-04-01T09:55:40;2.93;;;0.40;;
66129;SDS011;52930;51.464;11.764;2023-04-01T10:07:04;2.38;;;0.32;;
66129;SDS011;52930;51.464;11.764;2023-04-01T10:09:55;4.43;;;0.40;;
66129;SDS011;52930;51.464;11.764;2023-04-01T10:31:35;2.70;;;0.60;;
66129;SDS011;52930;51.464;11.764;2023-04-01T10:36:56;2.50;;;0.50;;
66129;SDS011;52930;51.464;11.764;2023-04-01T10:56:22;2.45;;;0.50;;
66129;SDS011;52930;51.464;11.764;2023-04-01T11:13:12;2.88;;;0.43;;
66129;SDS011;52930;51.464;11.764;2023-04-01T11:19:10;3.08;;;0.50;;
66129;SDS011;52930;51.464;11.764;2023-04-01T11:21:46;3.67;;;0.50;;
66129;SDS011;52930;51.464;11.764;2023-04-01T11:38:34;2.38;;;0.50;;
66129;SDS011;52930;51.464;11.764;2023-04-01T11:41:22;3.65;;;0.55;;
66129;SDS011;52930;51.464;11.764;2023-04-01T11:47:07;1.92;;;0.45;;
66129;SDS011;52930;51.464;11.764;2023-04-01T11:52:19;2.80;;;0.30;;
66129;SDS011;52930;51.464;11.764;2023-04-01T12:05:58;3.65;;;0.50;;
66129;SDS011;52930;51.464;11.764;2023-04-01T12:11:17;3.40;;;0.50;;
66129;SDS011;52930;51.464;11.764;2023-04-01T12:14:03;2.20;;;0.50;;
66129;SDS011;52930;51.464;11.764;2023-04-01T12:16:37;2.75;;;0.55;;
66129;SDS011;52930;51.464;11.764;2023-04-01T12:22:28;1.95;;;0.40;;
66129;SDS011;52930;51.464;11.764;2023-04-01T12:27:41;2.97;;;0.40;;
66129;SDS011;52930;51.464;11.764;2023-04-01T12:32:57;3.00;;;0.70;;
66129;SDS011;52930;51.464;11.764;2023-04-01T12:38:15;2.63;;;0.50;;
66129;SDS011;52930;51.464;11.764;2023-04-01T12:43:32;2.10;;;0.60;;
66129;SDS011;52930;51.464;11.764;2023-04-01T12:57:20;4.65;;;0.57;;
66129;SDS011;52930;51.464;11.764;2023-04-01T13:03:02;2.60;;;0.60;;
66129;SDS011;52930;51.464;11.764;2023-04-01T13:11:08;2.20;;;0.45;;
66129;SDS011;52930;51.464;11.764;2023-04-01T13:19:07;2.53;;;0.55;;
66129;SDS011;52930;51.464;11.764;2023-04-01T13:21:42;2.10;;;0.40;;
66129;SDS011;52930;51.464;11.764;2023-04-01T13:24:22;3.05;;;0.50;;
66129;SDS011;52930;51.464;11.764;2023-04-01T13:32:44;3.58;;;0.70;;
66129;SDS011;52930;51.464;11.764;2023-04-01T13:43:11;2.58;;;0.63;;
66129;SDS011;52930;51.464;11.764;2023-04-01T13:56:48;2.45;;;0.63;;
66129;SDS011;52930;51.464;11.764;2023-04-01T14:08:15;2.50;;;0.80;;
66129;SDS011;52930;51.464;11.764;2023-04-01T14:10:52;2.50;;;0.70;;
66129;SDS011;52930;51.464;11.764;2023-04-01T14:13:31;2.60;;;0.77;;
66129;SDS011;52930;51.464;11.764;2023-04-01T14:21:59;6.00;;;0.90;;
66129;SDS011;52930;51.464;11.764;2023-04-01T14:24:42;4.18;;;0.80;;
66129;SDS011;52930;51.464;11.764;2023-04-01T14:27:25;3.05;;;0.68;;
66129;SDS011;52930;51.464;11.764;2023-04-01T14:54:46;2.72;;;0.60;;
66129;SDS011;52930;51.464;11.764;2023-04-01T14:57:13;2.95;;;1.00;;
66129;SDS011;52930;51.464;11.764;2023-04-01T14:59:46;2.58;;;0.70;;
66129;SDS011;52930;51.464;11.764;2023-04-01T15:10:22;3.15;;;0.80;;
66129;SDS011;52930;51.464;11.764;2023-04-01T15:12:55;3.45;;;0.80;;
66129;SDS011;52930;51.464;11.764;2023-04-01T15:29:22;4.10;;;1.40;;
66129;SDS011;52930;51.464;11.764;2023-04-01T15:37:45;4.30;;;1.35;;
66129;SDS011;52930;51.464;11.764;2023-04-01T15:42:55;3.58;;;1.25;;
66129;SDS011;52930;51.464;11.764;2023-04-01T15:45:49;3.13;;;1.00;;
66129;SDS011;52930;51.464;11.764;2023-04-01T15:57:04;3.95;;;1.10;;
66129;SDS011;52930;51.464;11.764;2023-04-01T16:19:08;4.82;;;1.45;;
66129;SDS011;52930;51.464;11.764;2023-04-01T16:21:41;5.05;;;2.20;;
66129;SDS011;52930;51.464;11.764;2023-04-01T16:29:49;6.93;;;3.30;;
66129;SDS011;52930;51.464;11.764;2023-04-01T16:32:21;15.13;;;8.95;;
66129;SDS011;52930;51.464;11.764;2023-04-01T16:35:04;8.73;;;4.28;;
66129;SDS011;52930;51.464;11.764;2023-04-01T16:43:35;13.63;;;8.20;;
66129;SDS011;52930;51.464;11.764;2023-04-01T16:57:20;42.73;;;20.90;;
66129;SDS011;52930;51.464;11.764;2023-04-01T17:08:09;22.23;;;10.40;;
66129;SDS011;52930;51.464;11.764;2023-04-01T17:13:40;25.43;;;11.70;;
66129;SDS011;52930;51.464;11.764;2023-04-01T17:24:26;18.92;;;9.35;;
66129;SDS011;52930;51.464;11.764;2023-04-01T17:27:40;19.80;;;11.40;;
66129;SDS011;52930;51.464;11.764;2023-04-01T17:45:57;7.13;;;3.00;;
66129;SDS011;52930;51.464;11.764;2023-04-01T17:48:35;7.22;;;3.65;;
66129;SDS011;52930;51.464;11.764;2023-04-01T17:51:21;8.05;;;2.97;;
66129;SDS011;52930;51.464;11.764;2023-04-01T17:54:00;5.60;;;2.60;;
66129;SDS011;52930;51.464;11.764;2023-04-01T18:01:54;5.00;;;2.38;;
66129;SDS011;52930;51.464;11.764;2023-04-01T18:04:30;6.45;;;3.70;;
66129;SDS011;52930;51.464;11.764;2023-04-01T18:15:36;5.00;;;1.65;;
66129;SDS011;52930;51.464;11.764;2023-04-01T18:18:10;4.00;;;1.40;;
66129;SDS011;52930;51.464;11.764;2023-04-01T18:20:51;4.40;;;1.10;;
66129;SDS011;52930;51.464;11.764;2023-04-01T18:23:28;3.42;;;1.17;;
66129;SDS011;52930;51.464;11.764;2023-04-01T18:26:02;4.53;;;1.58;;
66129;SDS011;52930;51.464;11.764;2023-04-01T18:28:32;3.95;;;1.63;;
66129;SDS011;52930;51.464;11.764;2023-04-01T18:36:39;5.50;;;2.20;;
66129;SDS011;52930;51.464;11.764;2023-04-01T18:39:51;4.57;;;1.83;;
66129;SDS011;52930;51.464;11.764;2023-04-01T18:44:54;10.90;;;6.32;;
66129;SDS011;52930;51.464;11.764;2023-04-01T18:47:41;8.02;;;4.53;;
66129;SDS011;52930;51.464;11.764;2023-04-01T18:52:40;7.73;;;4.13;;
66129;SDS011;52930;51.464;11.764;2023-04-01T18:57:40;9.98;;;5.85;;
66129;SDS011;52930;51.464;11.764;2023-04-01T19:02:45;8.68;;;4.13;;
66129;SDS011;52930;51.464;11.764;2023-04-01T19:05:33;8.27;;;4.20;;
66129;SDS011;52930;51.464;11.764;2023-04-01T19:11:16;7.82;;;3.85;;
66129;SDS011;52930;51.464;11.764;2023-04-01T19:22:35;10.43;;;5.55;;
66129;SDS011;52930;51.464;11.764;2023-04-01T19:28:16;9.75;;;5.38;;
66129;SDS011;52930;51.464;11.764;2023-04-01T19:30:50;9.50;;;4.30;;
66129;SDS011;52930;51.464;11.764;2023-04-01T19:41:27;9.60;;;4.80;;
66129;SDS011;52930;51.464;11.764;2023-04-01T19:49:40;9.93;;;4.65;;
66129;SDS011;52930;51.464;11.764;2023-04-01T19:57:30;9.85;;;4.50;;
66129;SDS011;52930;51.464;11.764;2023-04-01T20:05:27;10.45;;;5.10;;
66129;SDS011;52930;51.464;11.764;2023-04-01T20:08:04;10.02;;;4.70;;
66129;SDS011;52930;51.464;11.764;2023-04-01T20:10:38;8.50;;;4.20;;
66129;SDS011;52930;51.464;11.764;2023-04-01T20:15:42;9.75;;;4.57;;
66129;SDS011;52930;51.464;11.764;2023-04-01T20:18:16;10.40;;;4.85;;
66129;SDS011;52930;51.464;11.764;2023-04-01T20:20:53;8.52;;;4.13;;
66129;SDS011;52930;51.464;11.764;2023-04-01T20:23:32;9.07;;;3.97;;
66129;SDS011;52930;51.464;11.764;2023-04-01T20:26:19;7.72;;;3.42;;
66129;SDS011;52930;51.464;11.764;2023-04-01T20:31:39;6.18;;;2.67;;
66129;SDS011;52930;51.464;11.764;2023-04-01T20:42:24;4.95;;;2.20;;
66129;SDS011;52930;51.464;11.764;2023-04-01T20:48:06;8.13;;;3.40;;
66129;SDS011;52930;51.464;11.764;2023-04-01T20:53:35;8.65;;;3.30;;
66129;SDS011;52930;51.464;11.764;2023-04-01T21:01:50;7.80;;;3.85;;
66129;SDS011;52930;51.464;11.764;2023-04-01T21:05:00;7.30;;;3.20;;
66129;SDS011;52930;51.464;11.764;2023-04-01T21:22:06;5.53;;;2.47;;
66129;SDS011;52930;51.464;11.764;2023-04-01T21:27:56;7.05;;;2.95;;
66129;SDS011;52930;51.464;11.764;2023-04-01T21:30:47;8.15;;;3.17;;
66129;SDS011;52930;51.464;11.764;2023-04-01T21:33:36;8.53;;;3.13;;
66129;SDS011;52930;51.464;11.764;2023-04-01T22:01:21;9.07;;;3.50;;
66129;SDS011;52930;51.464;11.764;2023-04-01T22:09:39;7.03;;;2.88;;
66129;SDS011;52930;51.464;11.764;2023-04-01T22:12:27;6.32;;;3.05;;
66129;SDS011;52930;51.464;11.764;2023-04-01T22:15:17;7.77;;;3.10;;
66129;SDS011;52930;51.464;11.764;2023-04-01T22:17:54;6.85;;;3.30;;
66129;SDS011;52930;51.464;11.764;2023-04-01T22:20:31;7.93;;;3.08;;
66129;SDS011;52930;51.464;11.764;2023-04-01T22:23:14;8.48;;;3.40;;
66129;SDS011;52930;51.464;11.764;2023-04-01T22:26:09;7.75;;;3.20;;
66129;SDS011;52930;51.464;11.764;2023-04-01T22:29:00;8.20;;;3.53;;
66129;SDS011;52930;51.464;11.764;2023-04-01T22:31:43;8.25;;;4.22;;
66129;SDS011;52930;51.464;11.764;2023-04-01T22:46:10;10.57;;;4.40;;
66129;SDS011;52930;51.464;11.764;2023-04-01T22:51:13;9.88;;;4.40;;
66129;SDS011;52930;51.464;11.764;2023-04-01T22:56:30;8.73;;;3.80;;
66129;SDS011;52930;51.464;11.764;2023-04-01T22:59:15;9.60;;;4.68;;
66129;SDS011;52930;51.464;11.764;2023-04-01T23:02:01;9.13;;;4.10;;
66129;SDS011;52930;51.464;11.764;2023-04-01T23:04:32;11.32;;;4.32;;
66129;SDS011;52930;51.464;11.764;2023-04-01T23:07:02;8.88;;;4.32;;
66129;SDS011;52930;51.464;11.764;2023-04-01T23:09:31;8.50;;;3.90;;
66129;SDS011;52930;51.464;11.764;2023-04-01T23:12:00;7.18;;;3.35;;
66129;SDS011;52930;51.464;11.764;2023-04-01T23:14:30;9.60;;;4.15;;
66129;SDS011;52930;51.464;11.764;2023-04-01T23:22:21;11.43;;;5.33;;
66129;SDS011;52930;51.464;11.764;2023-04-01T23:24:55;11.30;;;4.63;;
66129;SDS011;52930;51.464;11.764;2023-04-01T23:27:39;10.57;;;4.78;;
66129;SDS011;52930;51.464;11.764;2023-04-01T23:30:46;10.07;;;4.93;;
66129;SDS011;52930;51.464;11.764;2023-04-01T23:35:52;10.60;;;4.43;;
66129;SDS011;52930;51.464;11.764;2023-04-01T23:38:24;9.52;;;4.50;;
66129;SDS011;52930;51.464;11.764;2023-04-01T23:40:51;7.93;;;3.20;;
66129;SDS011;52930;51.464;11.764;2023-04-01T23:43:28;8.93;;;3.35;;
66129;SDS011;52930;51.464;11.764;2023-04-01T23:45:56;9.85;;;4.10;;
66129;SDS011;52930;51.464;11.764;2023-04-01T23:48:43;9.43;;;4.00;;
66129;SDS011;52930;51.464;11.764;2023-04-01T23:51:20;8.75;;;3.90;;
66129;SDS011;52930;51.464;11.764;2023-04-01T23:54:10;8.73;;;3.80;;
66129;SDS011;52930;51.464;11.764;2023-04-01T23:56:45;8.55;;;3.88;;
66129;SDS011;52930;51.464;11.764;2023-04-01T23:59:17;8.68;;;3.53;;
